Time;durP1;ratioP1;P1;durP2;ratioP2;P2;SDS_P1;SDS_P2;PMS_P1;PMS_P2;Temp;Humidity;BMP_temperature;BMP_pressure;BME280_temperature;BME280_humidity;BME280_pressure;Samples;Min_cycle;Max_cycle;Signal;HPM_P1;HPM_P2
2023/04/27 00:01:12;;;;;;;15.90;7.40;;;;;;;5.37;100.00;100708.98;110283;1235;58227;-69
2023/04/27 00:03:41;;;;;;;10.60;6.00;;;;;;;5.31;100.00;100709.30;110207;1235;63750;-69
2023/04/27 00:06:11;;;;;;;10.70;6.20;;;;;;;5.25;100.00;100710.95;110121;1233;62358;-69
2023/04/27 00:08:39;;;;;;;10.40;6.50;;;;;;;5.22;100.00;100711.80;109955;1234;71043;-69
2023/04/27 00:11:08;;;;;;;12.30;6.80;;;;;;;5.17;100.00;100715.16;110163;1235;63773;-68
2023/04/27 00:13:37;;;;;;;11.90;6.90;;;;;;;5.11;100.00;100714.75;110267;1235;58158;-69
2023/04/27 00:16:06;;;;;;;12.90;6.50;;;;;;;5.10;100.00;100712.20;110277;1235;60328;-69
2023/04/27 00:18:35;;;;;;;12.00;6.70;;;;;;;5.11;100.00;100714.94;110282;1234;74685;-68
2023/04/27 00:21:04;;;;;;;12.10;6.60;;;;;;;5.06;100.00;100715.36;110189;1235;71268;-68
2023/04/27 00:23:33;;;;;;;12.60;6.30;;;;;;;5.06;100.00;100715.52;110281;1233;70941;-68
2023/04/27 00:26:01;;;;;;;12.10;6.60;;;;;;;5.08;100.00;100720.98;110383;1234;74085;-69
2023/04/27 00:28:30;;;;;;;13.40;6.60;;;;;;;5.12;100.00;100723.71;110321;1237;58305;-69
2023/04/27 00:31:02;;;;;;;11.00;6.70;;;;;;;5.12;100.00;100720.44;110305;1237;58217;-68
2023/04/27 00:33:31;;;;;;;11.20;5.70;;;;;;;5.13;100.00;100712.94;110382;1234;72499;-68
2023/04/27 00:36:00;;;;;;;12.00;6.90;;;;;;;5.09;100.00;100714.68;110293;1234;73167;-68
2023/04/27 00:38:30;;;;;;;10.50;6.10;;;;;;;5.08;100.00;100711.64;110364;1234;60435;-68
2023/04/27 00:41:06;;;;;;;12.30;6.20;;;;;;;5.05;100.00;100714.55;110302;1235;73797;-68
2023/04/27 00:43:45;;;;;;;12.40;6.40;;;;;;;5.05;100.00;100715.23;110189;1238;58258;-68
2023/04/27 00:46:18;;;;;;;13.90;7.10;;;;;;;5.08;100.00;100719.41;110235;1234;60166;-68
2023/04/27 00:48:47;;;;;;;11.60;6.40;;;;;;;5.09;100.00;100716.98;110232;1235;63444;-68
2023/04/27 00:51:16;;;;;;;10.60;6.30;;;;;;;5.10;100.00;100713.28;110383;1238;61546;-68
2023/04/27 00:53:45;;;;;;;12.00;6.20;;;;;;;5.10;100.00;100715.70;110243;1234;70454;-70
2023/04/27 00:56:15;;;;;;;11.30;6.20;;;;;;;5.08;100.00;100717.36;110233;1234;65586;-69
2023/04/27 00:58:44;;;;;;;11.60;6.60;;;;;;;5.04;100.00;100717.68;110198;1238;58287;-70
2023/04/27 01:01:13;;;;;;;11.60;6.00;;;;;;;5.04;100.00;100719.27;110301;1235;60336;-69
2023/04/27 01:03:42;;;;;;;14.10;6.60;;;;;;;5.05;100.00;100720.56;110354;1234;73851;-69
2023/04/27 01:06:10;;;;;;;10.50;5.90;;;;;;;5.06;100.00;100723.14;110438;1234;72549;-69
2023/04/27 01:08:40;;;;;;;15.00;7.10;;;;;;;5.03;100.00;100725.66;110484;1234;60457;-69
2023/04/27 01:11:08;;;;;;;11.50;6.80;;;;;;;5.00;100.00;100728.40;110329;1235;74605;-68
2023/04/27 01:13:39;;;;;;;9.50;6.30;;;;;;;4.97;100.00;100735.64;110435;1235;58327;-68
2023/04/27 01:16:08;;;;;;;12.10;6.60;;;;;;;4.94;100.00;100737.36;110300;1235;58229;-68
2023/04/27 01:18:41;;;;;;;11.40;6.40;;;;;;;4.91;100.00;100740.43;110385;1237;63745;-68
2023/04/27 01:21:10;;;;;;;7.90;5.80;;;;;;;4.86;100.00;100747.21;110446;1235;60922;-68
2023/04/27 01:23:39;;;;;;;10.10;6.30;;;;;;;4.81;100.00;100752.30;110341;1238;59873;-68
2023/04/27 01:26:10;;;;;;;15.60;6.20;;;;;;;4.80;100.00;100755.13;110352;1234;73823;-70
2023/04/27 01:28:39;;;;;;;11.00;6.00;;;;;;;4.75;100.00;100758.27;110329;1236;58185;-70
2023/04/27 01:31:10;;;;;;;8.70;5.60;;;;;;;4.73;100.00;100759.24;110364;1234;60307;-70
2023/04/27 01:33:39;;;;;;;8.60;6.20;;;;;;;4.73;100.00;100760.64;110188;1235;74730;-70
2023/04/27 01:36:08;;;;;;;11.40;5.30;;;;;;;4.71;100.00;100758.12;110171;1238;62014;-70
2023/04/27 01:38:37;;;;;;;10.10;5.00;;;;;;;4.71;100.00;100759.34;110295;1234;59776;-70
2023/04/27 01:41:08;;;;;;;14.20;6.10;;;;;;;4.70;100.00;100760.77;110320;1237;62532;-70
2023/04/27 01:43:37;;;;;;;10.40;5.50;;;;;;;4.72;100.00;100757.73;110399;1236;60581;-70
2023/04/27 01:46:11;;;;;;;12.80;5.90;;;;;;;4.68;100.00;100759.48;110338;1234;61372;-70
2023/04/27 01:48:40;;;;;;;9.30;5.40;;;;;;;4.70;100.00;100759.22;110340;1238;63213;-70
2023/04/27 01:51:11;;;;;;;9.20;4.90;;;;;;;4.73;100.00;100762.15;110306;1238;61915;-70
2023/04/27 01:53:41;;;;;;;9.50;4.90;;;;;;;4.71;100.00;100760.88;110445;1235;70431;-70
2023/04/27 01:56:10;;;;;;;7.90;4.70;;;;;;;4.72;100.00;100761.19;110402;1235;73853;-70
2023/04/27 01:58:38;;;;;;;9.30;5.10;;;;;;;4.72;100.00;100765.14;110309;1236;62425;-70
2023/04/27 02:01:07;;;;;;;8.80;5.20;;;;;;;4.73;100.00;100765.11;110211;1237;57723;-70
2023/04/27 02:03:36;;;;;;;9.80;5.20;;;;;;;4.75;100.00;100765.86;110233;1235;74142;-70
2023/04/27 02:06:06;;;;;;;8.70;4.50;;;;;;;4.75;100.00;100762.39;110186;1234;71697;-70
2023/04/27 02:08:35;;;;;;;9.80;5.60;;;;;;;4.73;100.00;100767.31;110207;1239;70798;-68
2023/04/27 02:11:04;;;;;;;10.00;4.90;;;;;;;4.74;100.00;100765.77;110098;1235;72661;-68
2023/04/27 02:13:32;;;;;;;8.70;4.90;;;;;;;4.73;100.00;100770.28;110296;1238;62224;-69
2023/04/27 02:16:03;;;;;;;9.60;4.60;;;;;;;4.71;100.00;100769.35;110216;1238;62714;-69
2023/04/27 02:18:32;;;;;;;10.70;4.60;;;;;;;4.72;100.00;100769.99;110387;1237;65604;-69
2023/04/27 02:21:07;;;;;;;8.10;4.60;;;;;;;4.71;100.00;100768.83;110374;1238;61411;-69
2023/04/27 02:23:36;;;;;;;9.80;5.20;;;;;;;4.70;100.00;100776.44;110426;1234;70455;-69
2023/04/27 02:26:05;;;;;;;9.70;4.80;;;;;;;4.68;100.00;100781.20;110376;1233;64870;-69
2023/04/27 02:28:37;;;;;;;9.10;4.50;;;;;;;4.70;100.00;100781.96;110376;1237;62067;-69
2023/04/27 02:31:07;;;;;;;9.00;4.50;;;;;;;4.70;100.00;100789.39;110386;1235;60758;-69
2023/04/27 02:33:35;;;;;;;9.10;4.80;;;;;;;4.73;100.00;100789.77;110495;1235;74308;-69
2023/04/27 02:36:05;;;;;;;11.20;4.60;;;;;;;4.70;100.00;100788.51;110404;1238;61882;-69
2023/04/27 02:38:34;;;;;;;8.50;4.50;;;;;;;4.67;100.00;100792.30;110382;1234;71123;-69
2023/04/27 02:41:03;;;;;;;9.20;4.80;;;;;;;4.67;100.00;100796.62;110236;1238;63493;-68
2023/04/27 02:43:34;;;;;;;7.40;4.80;;;;;;;4.62;100.00;100796.70;110331;1238;57749;-69
2023/04/27 02:46:05;;;;;;;8.30;4.50;;;;;;;4.60;100.00;100795.20;110334;1238;57857;-69
2023/04/27 02:48:34;;;;;;;5.30;3.50;;;;;;;4.54;100.00;100800.46;110227;1238;62850;-69
2023/04/27 02:51:05;;;;;;;9.30;4.70;;;;;;;4.48;100.00;100798.50;110371;1234;72796;-69
2023/04/27 02:53:35;;;;;;;11.00;4.80;;;;;;;4.45;100.00;100797.27;110326;1238;59929;-69
2023/04/27 02:56:04;;;;;;;10.90;4.90;;;;;;;4.37;100.00;100800.92;110302;1235;73862;-69
2023/04/27 02:58:33;;;;;;;13.00;4.80;;;;;;;4.32;100.00;100805.10;110358;1236;58288;-69
2023/04/27 03:01:02;;;;;;;9.50;4.80;;;;;;;4.30;100.00;100810.05;110345;1234;57728;-69
2023/04/27 03:03:31;;;;;;;9.00;4.70;;;;;;;4.25;100.00;100813.36;110313;1235;74374;-69
2023/04/27 03:05:59;;;;;;;8.40;4.20;;;;;;;4.23;100.00;100816.55;110295;1235;71699;-68
2023/04/27 03:08:28;;;;;;;8.20;4.90;;;;;;;4.19;100.00;100823.45;110187;1235;69864;-70
2023/04/27 03:10:58;;;;;;;6.90;4.90;;;;;;;4.17;100.00;100826.31;110376;1236;62871;-70
2023/04/27 03:13:27;;;;;;;9.60;4.70;;;;;;;4.16;100.00;100829.46;110142;1238;61109;-70
2023/04/27 03:15:56;;;;;;;10.70;5.40;;;;;;;4.17;100.00;100835.41;110217;1237;60114;-70
2023/04/27 03:18:24;;;;;;;9.10;4.20;;;;;;;4.15;100.00;100840.69;110111;1239;74507;-70
2023/04/27 03:20:53;;;;;;;9.10;4.30;;;;;;;4.16;100.00;100838.75;110286;1239;62204;-69
2023/04/27 03:23:22;;;;;;;9.80;4.60;;;;;;;4.15;100.00;100841.70;110267;1235;69758;-69
2023/04/27 03:25:52;;;;;;;11.20;5.70;;;;;;;4.18;100.00;100841.23;110428;1236;63568;-69
2023/04/27 03:28:21;;;;;;;8.70;4.70;;;;;;;4.19;100.00;100846.54;110383;1236;57796;-69
2023/04/27 03:30:50;;;;;;;8.60;4.30;;;;;;;4.21;100.00;100847.98;110380;1235;60284;-69
2023/04/27 03:33:18;;;;;;;8.60;4.10;;;;;;;4.24;100.00;100847.84;110406;1239;74874;-69
2023/04/27 03:35:55;;;;;;;7.50;4.50;;;;;;;4.24;100.00;100849.75;110362;1238;62137;-69
2023/04/27 03:38:25;;;;;;;9.10;4.60;;;;;;;4.25;100.00;100848.88;110260;1239;59472;-70
2023/04/27 03:40:54;;;;;;;9.30;4.50;;;;;;;4.18;100.00;100847.80;110275;1239;63213;-69
2023/04/27 03:43:25;;;;;;;12.60;5.10;;;;;;;4.13;100.00;100853.71;110170;1238;58250;-69
2023/04/27 03:45:53;;;;;;;10.80;5.20;;;;;;;4.07;100.00;100859.66;110072;1239;61006;-69
2023/04/27 03:48:22;;;;;;;10.90;4.60;;;;;;;4.09;100.00;100858.70;110350;1235;64354;-69
2023/04/27 03:50:52;;;;;;;9.40;4.60;;;;;;;4.11;100.00;100852.76;110181;1235;73128;-69
2023/04/27 03:53:21;;;;;;;10.00;5.40;;;;;;;4.13;100.00;100852.32;110418;1235;60137;-69
2023/04/27 03:55:50;;;;;;;11.00;5.60;;;;;;;4.18;100.00;100854.54;110288;1237;63314;-69
2023/04/27 03:58:19;;;;;;;12.30;4.90;;;;;;;4.20;100.00;100863.20;110187;1235;62446;-69
2023/04/27 04:01:08;;;;;;;7.10;3.80;;;;;;;4.29;100.00;100865.42;110204;1235;62397;-69
2023/04/27 04:03:37;;;;;;;7.20;4.00;;;;;;;4.39;100.00;100867.06;110039;1238;74788;-67
2023/04/27 04:06:07;;;;;;;7.90;4.50;;;;;;;4.49;100.00;100869.86;110158;1234;61979;-67
2023/04/27 04:08:36;;;;;;;5.30;3.60;;;;;;;4.58;100.00;100867.23;110136;1235;59202;-67
2023/04/27 04:11:05;;;;;;;9.30;3.70;;;;;;;4.67;100.00;100866.33;110188;1237;62442;-69
2023/04/27 04:13:34;;;;;;;6.70;3.90;;;;;;;4.73;100.00;100866.88;110321;1238;60555;-70
2023/04/27 04:16:06;;;;;;;7.20;4.30;;;;;;;4.81;100.00;100864.96;110250;1236;58264;-69
2023/04/27 04:18:35;;;;;;;8.30;4.70;;;;;;;4.89;100.00;100867.40;110219;1235;64661;-68
2023/04/27 04:21:05;;;;;;;9.80;4.80;;;;;;;4.93;100.00;100871.50;110338;1236;72197;-68
2023/04/27 04:23:34;;;;;;;11.20;4.40;;;;;;;4.97;100.00;100875.25;110332;1234;71295;-68
2023/04/27 04:26:03;;;;;;;7.30;4.10;;;;;;;5.01;100.00;100881.80;110255;1235;64012;-69
2023/04/27 04:28:36;;;;;;;8.30;4.60;;;;;;;5.03;100.00;100883.48;110302;1237;58273;-70
2023/04/27 04:31:05;;;;;;;6.60;3.80;;;;;;;5.14;100.00;100885.20;110323;1235;60132;-73
2023/04/27 04:33:34;;;;;;;11.60;4.60;;;;;;;5.17;100.00;100883.34;110317;1235;74201;-69
2023/04/27 04:36:03;;;;;;;17.90;8.10;;;;;;;5.26;100.00;100885.14;110168;1235;71902;-69
2023/04/27 04:38:32;;;;;;;26.50;11.90;;;;;;;5.29;100.00;100884.49;110225;1235;70926;-69
2023/04/27 04:41:01;;;;;;;13.80;5.90;;;;;;;5.29;100.00;100884.30;110396;1235;62935;-69
2023/04/27 04:43:32;;;;;;;12.00;4.80;;;;;;;5.34;100.00;100888.04;110329;1238;58330;-69
2023/04/27 04:46:04;;;;;;;7.20;3.40;;;;;;;5.40;100.00;100893.11;110260;1235;59376;-68
2023/04/27 04:48:34;;;;;;;12.00;5.70;;;;;;;5.44;100.00;100892.74;110221;1234;73564;-68
2023/04/27 04:51:06;;;;;;;7.80;3.70;;;;;;;5.51;100.00;100894.30;110328;1235;62121;-69
2023/04/27 04:53:36;;;;;;;8.00;4.30;;;;;;;5.64;100.00;100892.27;110179;1235;70548;-68
2023/04/27 04:56:12;;;;;;;11.00;4.00;;;;;;;5.72;100.00;100900.55;110106;1235;64795;-68
2023/04/27 04:58:40;;;;;;;11.80;3.90;;;;;;;5.72;100.00;100906.60;110151;1237;58344;-69
2023/04/27 05:01:10;;;;;;;9.00;4.10;;;;;;;5.82;100.00;100905.59;110219;1236;61178;-68
2023/04/27 05:03:39;;;;;;;8.80;4.70;;;;;;;5.87;100.00;100901.69;110328;1234;73908;-69
2023/04/27 05:06:08;;;;;;;7.90;3.40;;;;;;;5.92;100.00;100897.31;110262;1234;62105;-69
2023/04/27 05:08:37;;;;;;;8.30;4.80;;;;;;;5.99;100.00;100896.99;110409;1233;69655;-68
2023/04/27 05:11:05;;;;;;;10.50;5.00;;;;;;;6.05;100.00;100896.88;110107;1235;74352;-69
2023/04/27 05:13:34;;;;;;;9.70;5.30;;;;;;;6.14;99.98;100895.87;110334;1235;58321;-69
2023/04/27 05:16:04;;;;;;;9.30;4.50;;;;;;;6.21;99.88;100901.06;110420;1236;58616;-67
2023/04/27 05:18:34;;;;;;;8.40;4.30;;;;;;;6.35;98.60;100906.88;110393;1235;74853;-68
2023/04/27 05:21:03;;;;;;;6.90;3.30;;;;;;;6.44;96.88;100900.94;110184;1234;62292;-68
2023/04/27 05:23:32;;;;;;;8.70;4.00;;;;;;;6.48;96.16;100903.84;110379;1235;60952;-68
2023/04/27 05:26:10;;;;;;;8.20;3.50;;;;;;;6.51;96.03;100909.53;110244;1236;62387;-67
2023/04/27 05:28:39;;;;;;;9.00;4.80;;;;;;;6.61;94.71;100903.48;110260;1236;62087;-68
2023/04/27 05:31:08;;;;;;;7.60;4.40;;;;;;;6.65;94.53;100911.89;110180;1235;60726;-68
2023/04/27 05:33:36;;;;;;;10.60;5.70;;;;;;;6.74;94.24;100908.19;110189;1235;75906;-68
2023/04/27 05:36:05;;;;;;;7.50;3.70;;;;;;;6.84;91.74;100908.98;110254;1235;62385;-68
2023/04/27 05:38:36;;;;;;;11.40;4.30;;;;;;;6.92;92.14;100905.98;110289;1234;60605;-68
2023/04/27 05:41:05;;;;;;;12.40;4.70;;;;;;;7.03;91.10;100906.38;110225;1238;74505;-68
2023/04/27 05:43:35;;;;;;;7.40;3.70;;;;;;;7.08;89.72;100889.66;109970;1238;58343;-68
2023/04/27 05:46:04;;;;;;;8.70;4.90;;;;;;;7.07;88.59;100895.43;110393;1233;57824;-68
2023/04/27 05:48:33;;;;;;;7.70;4.90;;;;;;;7.08;88.70;100891.40;110209;1233;62947;-69
2023/04/27 05:51:03;;;;;;;7.50;3.80;;;;;;;7.21;88.30;100892.81;110199;1234;61647;-68
2023/04/27 05:53:34;;;;;;;6.80;3.40;;;;;;;7.23;87.32;100893.39;109933;1234;59961;-69
2023/04/27 05:56:05;;;;;;;13.20;4.20;;;;;;;7.29;86.74;100881.97;110161;1238;73229;-69
2023/04/27 05:58:34;;;;;;;8.40;4.30;;;;;;;7.28;87.68;100887.02;109959;1238;58113;-68
2023/04/27 06:01:03;;;;;;;7.30;3.80;;;;;;;7.27;87.42;100886.74;110345;1234;57828;-70
2023/04/27 06:03:32;;;;;;;6.20;3.50;;;;;;;7.35;86.52;100890.94;110377;1235;62774;-68
2023/04/27 06:06:01;;;;;;;7.80;4.10;;;;;;;7.34;86.58;100892.77;110489;1235;72218;-69
2023/04/27 06:08:30;;;;;;;6.80;4.30;;;;;;;7.36;86.75;100896.98;110478;1235;60553;-68
2023/04/27 06:10:59;;;;;;;9.10;4.00;;;;;;;7.39;86.29;100891.10;110472;1235;62454;-70
2023/04/27 06:13:29;;;;;;;9.60;4.40;;;;;;;7.47;87.13;100896.74;110472;1235;60431;-69
2023/04/27 06:16:00;;;;;;;10.90;4.10;;;;;;;7.51;87.34;100895.96;110517;1236;57784;-69
2023/04/27 06:18:29;;;;;;;10.50;4.70;;;;;;;7.56;87.31;100890.33;110458;1235;73559;-71
2023/04/27 06:21:01;;;;;;;12.50;6.20;;;;;;;7.69;87.38;100901.00;110357;1234;61422;-69
2023/04/27 06:23:30;;;;;;;10.10;4.30;;;;;;;7.83;86.64;100898.13;110391;1235;70475;-69
2023/04/27 06:26:00;;;;;;;9.60;4.60;;;;;;;7.93;84.34;100904.13;110474;1235;64282;-68
2023/04/27 06:28:30;;;;;;;7.20;3.50;;;;;;;8.00;82.06;100904.23;110379;1234;60429;-69
2023/04/27 06:30:58;;;;;;;6.40;3.60;;;;;;;7.98;81.20;100907.64;110465;1235;61613;-69
2023/04/27 06:33:27;;;;;;;8.20;3.50;;;;;;;7.97;80.02;100906.14;110449;1235;74731;-68
2023/04/27 06:35:57;;;;;;;5.50;3.00;;;;;;;7.86;79.79;100907.99;110213;1233;62348;-69
2023/04/27 06:38:26;;;;;;;10.50;3.70;;;;;;;7.97;80.25;100892.09;110436;1235;70550;-69
2023/04/27 06:40:55;;;;;;;7.20;3.60;;;;;;;8.01;79.60;100895.33;110185;1234;74233;-71
2023/04/27 06:43:24;;;;;;;7.80;3.30;;;;;;;7.98;80.26;100896.68;110436;1236;60998;-69
2023/04/27 06:45:53;;;;;;;8.70;3.80;;;;;;;8.04;80.53;100904.85;110446;1233;58202;-69
2023/04/27 06:48:22;;;;;;;6.60;3.20;;;;;;;8.13;79.84;100898.11;110440;1234;74381;-69
2023/04/27 06:50:50;;;;;;;7.70;3.40;;;;;;;8.22;79.61;100908.84;110452;1234;72505;-68
2023/04/27 06:53:19;;;;;;;9.30;3.60;;;;;;;8.27;78.75;100903.35;110489;1234;59234;-69
2023/04/27 06:55:49;;;;;;;8.40;3.70;;;;;;;8.28;79.02;100904.13;110344;1234;63115;-68
2023/04/27 06:58:18;;;;;;;6.80;3.60;;;;;;;8.34;79.86;100888.35;110490;1235;57773;-69
2023/04/27 07:00:47;;;;;;;5.50;3.00;;;;;;;8.45;79.00;100886.65;110482;1233;58309;-68
2023/04/27 07:03:16;;;;;;;7.80;3.60;;;;;;;8.58;78.17;100896.80;110500;1234;74345;-68
2023/04/27 07:05:45;;;;;;;8.30;4.10;;;;;;;8.72;78.36;100895.61;110461;1235;72841;-68
2023/04/27 07:08:14;;;;;;;9.40;3.40;;;;;;;8.73;77.57;100901.27;110450;1235;69720;-69
2023/04/27 07:10:42;;;;;;;8.70;4.20;;;;;;;8.75;77.29;100878.42;110409;1233;73722;-68
2023/04/27 07:13:11;;;;;;;7.90;3.80;;;;;;;8.90;77.17;100887.70;110235;1238;58242;-69
2023/04/27 07:15:41;;;;;;;9.90;3.70;;;;;;;9.05;76.48;100881.73;110326;1234;61250;-69
2023/04/27 07:18:11;;;;;;;9.30;4.20;;;;;;;9.16;75.98;100885.02;110333;1235;63004;-69
2023/04/27 07:20:40;;;;;;;11.40;3.50;;;;;;;9.23;74.11;100892.44;110342;1234;71280;-69
2023/04/27 07:23:09;;;;;;;7.10;3.70;;;;;;;9.51;72.86;100893.70;110316;1234;70566;-69
2023/04/27 07:25:39;;;;;;;7.10;4.00;;;;;;;9.54;73.67;100895.46;110418;1235;62843;-68
2023/04/27 07:28:08;;;;;;;6.10;3.00;;;;;;;9.66;72.86;100890.14;110426;1234;59713;-68
2023/04/27 07:30:38;;;;;;;7.50;4.00;;;;;;;9.68;64.41;100896.96;110365;1235;58255;-68
2023/04/27 07:33:07;;;;;;;6.60;3.20;;;;;;;9.61;60.84;100891.31;110362;1234;73589;-69
2023/04/27 07:35:36;;;;;;;7.50;3.00;;;;;;;9.59;60.82;100890.23;110450;1233;63895;-69
2023/04/27 07:38:05;;;;;;;10.90;3.30;;;;;;;9.66;60.30;100887.35;110264;1234;71070;-69
2023/04/27 07:40:35;;;;;;;5.40;3.00;;;;;;;9.69;59.24;100893.91;110362;1233;63496;-69
2023/04/27 07:43:04;;;;;;;6.60;3.10;;;;;;;9.46;59.14;100904.12;110334;1236;60404;-68
2023/04/27 07:45:33;;;;;;;7.10;2.90;;;;;;;9.62;57.42;100896.48;110473;1234;61582;-69
2023/04/27 07:48:03;;;;;;;6.60;3.00;;;;;;;9.64;55.14;100898.75;110530;1234;75001;-68
2023/04/27 07:50:32;;;;;;;4.30;2.90;;;;;;;9.50;53.09;100906.30;110482;1235;72930;-68
2023/04/27 07:53:00;;;;;;;5.60;3.20;;;;;;;9.33;52.96;100907.58;110483;1233;70859;-69
2023/04/27 07:55:29;;;;;;;7.00;2.60;;;;;;;9.26;53.12;100904.54;110429;1234;63145;-69
2023/04/27 07:57:58;;;;;;;6.80;3.70;;;;;;;9.25;53.54;100905.64;110342;1238;58324;-69
2023/04/27 08:00:27;;;;;;;5.10;2.70;;;;;;;9.24;52.85;100908.67;110464;1234;61164;-69
2023/04/27 08:02:55;;;;;;;6.80;3.20;;;;;;;9.21;53.27;100905.52;110194;1233;75346;-68
2023/04/27 08:05:25;;;;;;;8.50;3.40;;;;;;;9.18;52.61;100911.45;110388;1235;72176;-67
2023/04/27 08:07:54;;;;;;;6.60;3.00;;;;;;;9.01;53.75;100913.23;110197;1233;61978;-68
2023/04/27 08:10:23;;;;;;;10.20;3.60;;;;;;;9.15;55.60;100910.80;110387;1235;74311;-68
2023/04/27 08:12:53;;;;;;;5.90;3.50;;;;;;;9.12;57.40;100914.28;110238;1237;60935;-69
2023/04/27 08:15:22;;;;;;;5.60;3.10;;;;;;;9.14;57.83;100915.06;109993;1237;61125;-68
2023/04/27 08:17:50;;;;;;;6.50;2.90;;;;;;;9.25;55.79;100914.50;110211;1234;75414;-68
2023/04/27 08:20:20;;;;;;;5.60;4.00;;;;;;;9.19;53.01;100924.25;110305;1234;72307;-68
2023/04/27 08:22:50;;;;;;;8.60;4.30;;;;;;;9.15;53.42;100916.89;109724;1235;264281;-69
2023/04/27 08:25:19;;;;;;;6.10;3.00;;;;;;;9.14;53.04;100920.78;110142;1234;62855;-69
2023/04/27 08:27:48;;;;;;;5.90;3.00;;;;;;;9.16;53.30;100924.61;110324;1237;61007;-68
2023/04/27 08:30:17;;;;;;;7.10;3.00;;;;;;;9.24;52.56;100928.95;110423;1234;58228;-69
2023/04/27 08:32:46;;;;;;;5.30;2.70;;;;;;;9.28;51.43;100922.30;110445;1235;74386;-69
2023/04/27 08:35:16;;;;;;;8.80;2.90;;;;;;;9.30;51.19;100914.39;109968;1235;63767;-69
2023/04/27 08:37:45;;;;;;;7.10;3.20;;;;;;;9.34;52.34;100914.49;110325;1236;59208;-68
2023/04/27 08:40:14;;;;;;;8.00;2.70;;;;;;;9.40;52.27;100919.27;110412;1236;71972;-69
2023/04/27 08:42:55;;;;;;;7.80;3.00;;;;;;;9.35;50.51;100910.56;110394;1236;61754;-68
2023/04/27 08:45:25;;;;;;;9.50;4.60;;;;;;;9.45;51.33;100919.00;110377;1233;61441;-69
2023/04/27 08:47:54;;;;;;;8.50;3.30;;;;;;;9.47;50.70;100919.20;110303;1237;64714;-69
2023/04/27 08:50:23;;;;;;;7.70;3.30;;;;;;;9.54;49.93;100907.91;110305;1242;61633;-69
2023/04/27 08:52:52;;;;;;;6.80;3.30;;;;;;;9.94;49.03;100902.20;110301;1238;59030;-69
2023/04/27 08:55:22;;;;;;;8.70;4.20;;;;;;;10.00;48.20;100905.94;110252;1238;62425;-69
2023/04/27 08:57:59;;;;;;;7.90;3.30;;;;;;;10.04;47.48;100914.55;110365;1235;60154;-69
2023/04/27 09:00:41;;;;;;;6.00;2.50;;;;;;;10.02;46.98;100916.13;110131;1235;61698;-70
2023/04/27 09:03:26;;;;;;;6.90;3.40;;;;;;;9.94;47.51;100913.71;110263;1235;74633;-69
2023/04/27 09:05:55;;;;;;;6.90;2.90;;;;;;;9.96;48.14;100906.60;110015;1234;72528;-68
2023/04/27 09:08:47;;;;;;;6.10;2.50;;;;;;;10.07;48.89;100913.36;110229;1235;60328;-69
2023/04/27 09:11:37;;;;;;;6.90;2.60;;;;;;;10.21;47.97;100921.59;110145;1238;62523;-69
2023/04/27 09:14:21;;;;;;;8.80;3.20;;;;;;;10.32;47.66;100917.43;110235;1235;58268;-69
2023/04/27 09:16:58;;;;;;;7.30;2.50;;;;;;;10.14;48.50;100921.90;110154;1237;61267;-69
2023/04/27 09:19:29;;;;;;;7.90;3.00;;;;;;;10.22;47.96;100911.11;110252;1234;74428;-69
2023/04/27 09:22:10;;;;;;;5.10;2.40;;;;;;;10.27;48.95;100913.59;110164;1234;72943;-69
2023/04/27 09:24:51;;;;;;;7.00;2.50;;;;;;;10.30;49.07;100920.36;110215;1235;70789;-69
2023/04/27 09:27:20;;;;;;;5.20;2.70;;;;;;;10.27;49.33;100918.31;110173;1234;63634;-69
2023/04/27 09:29:50;;;;;;;5.90;2.90;;;;;;;10.26;49.92;100914.48;110393;1235;58310;-69
2023/04/27 09:32:20;;;;;;;6.30;2.90;;;;;;;10.37;49.88;100912.20;110441;1235;57818;-69
2023/04/27 09:34:48;;;;;;;5.60;2.40;;;;;;;10.37;49.39;100926.98;110409;1234;73546;-68
2023/04/27 09:37:18;;;;;;;4.60;2.60;;;;;;;10.29;48.77;100913.94;110298;1237;61266;-68
2023/04/27 09:39:48;;;;;;;5.50;2.60;;;;;;;10.19;49.37;100914.48;110405;1235;70519;-68
2023/04/27 09:42:17;;;;;;;10.30;2.50;;;;;;;10.07;49.84;100906.36;110386;1235;62469;-68
2023/04/27 09:44:46;;;;;;;7.00;2.50;;;;;;;10.00;50.39;100904.08;110316;1236;58489;-70
2023/04/27 09:47:15;;;;;;;5.70;2.80;;;;;;;10.06;51.17;100912.39;110255;1238;58282;-69
2023/04/27 09:49:44;;;;;;;4.90;2.60;;;;;;;10.20;51.99;100915.96;110179;1236;72958;-69
2023/04/27 09:52:13;;;;;;;7.70;3.10;;;;;;;10.31;52.34;100916.96;110243;1236;61599;-68
2023/04/27 09:54:42;;;;;;;5.70;2.60;;;;;;;10.19;52.59;100921.95;110292;1234;59279;-68
2023/04/27 09:57:54;;;;;;;8.20;4.30;;;;;;;10.16;52.67;100926.98;110268;1235;63234;-68
2023/04/27 10:00:38;;;;;;;9.50;4.30;;;;;;;10.01;52.66;100927.70;110396;1237;57752;-69
2023/04/27 10:03:52;;;;;;;8.70;3.40;;;;;;;10.00;52.50;100920.59;110431;1234;60396;-69
2023/04/27 10:06:46;;;;;;;6.20;2.60;;;;;;;10.10;52.06;100926.55;110279;1233;73837;-69
2023/04/27 10:09:22;;;;;;;9.10;2.70;;;;;;;10.11;51.57;100917.59;110379;1235;72700;-69
2023/04/27 10:11:54;;;;;;;6.50;2.90;;;;;;;10.15;51.41;100918.33;110443;1235;70852;-69
2023/04/27 10:14:23;;;;;;;7.10;2.60;;;;;;;10.18;51.55;100923.53;110163;1235;74191;-69
2023/04/27 10:16:58;;;;;;;7.40;3.10;;;;;;;10.11;52.54;100919.30;110365;1236;57820;-68
2023/04/27 10:19:27;;;;;;;7.30;2.80;;;;;;;10.24;53.01;100916.35;110178;1238;57797;-69
2023/04/27 10:22:06;;;;;;;5.60;2.70;;;;;;;10.53;51.49;100919.99;110388;1235;63742;-68
2023/04/27 10:24:38;;;;;;;6.40;3.80;;;;;;;10.40;51.65;100915.68;110407;1235;61555;-68
2023/04/27 10:27:12;;;;;;;3.70;2.40;;;;;;;10.24;52.45;100921.23;110318;1237;59806;-71
2023/04/27 10:29:45;;;;;;;6.20;2.90;;;;;;;10.27;52.34;100924.73;110173;1238;62987;-69
2023/04/27 10:32:25;;;;;;;5.90;2.50;;;;;;;10.25;51.94;100932.65;110278;1235;58355;-69
2023/04/27 10:35:06;;;;;;;7.50;3.60;;;;;;;10.07;52.49;100919.45;110343;1234;58304;-68
2023/04/27 10:37:42;;;;;;;6.10;2.70;;;;;;;10.02;52.85;100926.33;110308;1235;63798;-68
2023/04/27 10:40:16;;;;;;;10.20;2.90;;;;;;;10.11;53.20;100931.34;110290;1234;72162;-69
2023/04/27 10:42:48;;;;;;;8.70;3.40;;;;;;;10.15;52.42;100933.53;110274;1238;60339;-70
2023/04/27 10:45:27;;;;;;;8.40;3.80;;;;;;;10.19;52.61;100921.95;110169;1235;73824;-69
2023/04/27 10:48:00;;;;;;;6.80;3.60;;;;;;;10.08;52.62;100935.55;110248;1236;58416;-69
2023/04/27 10:50:30;;;;;;;4.20;2.00;;;;;;;10.05;53.22;100932.44;110253;1234;58287;-69
2023/04/27 10:53:01;;;;;;;6.30;2.70;;;;;;;10.38;52.03;100937.57;110281;1234;73902;-69
2023/04/27 10:55:31;;;;;;;4.80;2.60;;;;;;;10.42;52.56;100937.33;110180;1235;62156;-68
2023/04/27 10:58:01;;;;;;;6.20;3.00;;;;;;;10.58;51.43;100930.76;109938;1233;69521;-69
2023/04/27 11:00:43;;;;;;;8.80;2.80;;;;;;;10.96;51.17;100937.73;110005;1238;74039;-69
2023/04/27 11:03:19;;;;;;;6.70;2.70;;;;;;;11.27;50.73;100925.73;110031;1238;57832;-69
2023/04/27 11:05:59;;;;;;;6.90;2.60;;;;;;;11.46;49.12;100921.80;110231;1234;57768;-69
2023/04/27 11:08:29;;;;;;;6.40;2.30;;;;;;;11.22;49.40;100931.34;110292;1234;74417;-68
2023/04/27 11:10:58;;;;;;;6.30;2.60;;;;;;;10.98;49.95;100932.00;110429;1234;70958;-69
2023/04/27 11:13:27;;;;;;;5.90;2.60;;;;;;;10.80;50.73;100931.48;110442;1234;60428;-69
2023/04/27 11:15:58;;;;;;;5.60;2.40;;;;;;;10.75;50.58;100931.68;110352;1235;63269;-69
2023/04/27 11:18:32;;;;;;;9.00;2.90;;;;;;;10.29;51.24;100937.10;110239;1238;58310;-69
2023/04/27 11:21:14;;;;;;;5.80;2.40;;;;;;;10.21;51.79;100938.36;110253;1234;57835;-69
2023/04/27 11:23:43;;;;;;;4.90;2.40;;;;;;;10.35;51.98;100953.81;110352;1234;63022;-69
2023/04/27 11:26:20;;;;;;;4.80;2.30;;;;;;;10.26;51.73;100946.87;110351;1233;60908;-68
2023/04/27 11:29:04;;;;;;;7.30;2.40;;;;;;;10.27;51.98;100956.90;110398;1234;59030;-68
2023/04/27 11:31:48;;;;;;;5.80;2.40;;;;;;;10.37;51.74;100959.22;110413;1234;62560;-68
2023/04/27 11:34:20;;;;;;;6.10;2.60;;;;;;;10.31;52.41;100951.27;110185;1238;58325;-68